Time;durP1;ratioP1;P1;durP2;ratioP2;P2;SDS_P1;SDS_P2;PMS_P1;PMS_P2;Temp;Humidity;BMP_temperature;BMP_pressure;BME280_temperature;BME280_humidity;BME280_pressure;Samples;Min_cycle;Max_cycle;Signal;HPM_P1;HPM_P2
2023/03/07 00:01:23;;;;;;;18.67;10.25;;;28.50;81.80;;;;;;4987234;28;20035;-53
2023/03/07 00:03:50;;;;;;;22.08;10.50;;;28.50;81.80;;;;;;4987194;28;20315;-53
2023/03/07 00:06:16;;;;;;;29.30;10.43;;;28.40;81.60;;;;;;4987175;28;20029;-56
2023/03/07 00:08:47;;;;;;;21.60;10.32;;;28.40;81.50;;;;;;4987271;28;20345;-57
2023/03/07 00:11:14;;;;;;;15.48;10.10;;;28.40;81.50;;;;;;4987316;28;20047;-52
2023/03/07 00:13:40;;;;;;;20.15;10.02;;;28.40;81.40;;;;;;4986980;28;20098;-54
2023/03/07 00:16:14;;;;;;;18.05;10.32;;;28.40;81.30;;;;;;4987096;28;20102;-60
2023/03/07 00:18:41;;;;;;;18.38;10.02;;;28.40;81.70;;;;;;4986989;28;20019;-53
2023/03/07 00:21:14;;;;;;;20.50;9.82;;;28.40;81.20;;;;;;4986729;28;20208;-53
2023/03/07 00:23:43;;;;;;;21.00;10.10;;;28.30;81.20;;;;;;4987062;28;20015;-54
2023/03/07 00:26:18;;;;;;;18.95;10.10;;;28.30;80.90;;;;;;4986991;28;20060;-55
2023/03/07 00:28:47;;;;;;;17.55;10.13;;;28.30;81.10;;;;;;4986878;28;20014;-53
2023/03/07 00:31:14;;;;;;;22.15;10.55;;;28.30;81.10;;;;;;4986938;28;20042;-53
2023/03/07 00:33:41;;;;;;;15.98;10.50;;;28.30;81.10;;;;;;4986682;28;20315;-53
2023/03/07 00:36:18;;;;;;;25.20;12.05;;;28.30;81.10;;;;;;4987039;28;20406;-53
2023/03/07 00:38:48;;;;;;;21.92;12.50;;;28.20;81.00;;;;;;4986738;28;20042;-53
2023/03/07 00:41:18;;;;;;;25.25;13.25;;;28.30;80.90;;;;;;4986715;28;20126;-54
2023/03/07 00:43:45;;;;;;;25.90;13.25;;;28.20;80.70;;;;;;4986504;28;20037;-53
2023/03/07 00:46:15;;;;;;;17.98;11.88;;;28.20;80.40;;;;;;4986985;28;20286;-53
2023/03/07 00:48:42;;;;;;;22.42;11.43;;;28.20;80.40;;;;;;4986678;28;20090;-54
2023/03/07 00:51:11;;;;;;;19.98;11.45;;;28.20;80.40;;;;;;4986889;28;20026;-52
2023/03/07 00:53:38;;;;;;;19.60;10.63;;;28.20;80.30;;;;;;4986292;28;20018;-56
2023/03/07 00:56:15;;;;;;;21.95;10.70;;;28.20;80.10;;;;;;4986734;28;20085;-55
2023/03/07 00:58:45;;;;;;;20.27;10.98;;;28.20;80.20;;;;;;4986521;28;20224;-55
2023/03/07 01:01:24;;;;;;;23.55;13.23;;;28.10;80.10;;;;;;4986406;28;20038;-54
2023/03/07 01:03:54;;;;;;;22.17;14.13;;;28.10;80.10;;;;;;4986404;28;20199;-54
2023/03/07 01:06:30;;;;;;;24.30;12.77;;;28.10;79.90;;;;;;4986105;28;20341;-56
2023/03/07 01:08:59;;;;;;;19.75;11.95;;;28.10;79.80;;;;;;4986771;28;20023;-52
2023/03/07 01:11:30;;;;;;;19.38;11.40;;;28.10;79.70;;;;;;4985955;28;20073;-54
2023/03/07 01:14:01;;;;;;;21.17;11.38;;;28.10;79.60;;;;;;4986355;28;20192;-54
2023/03/07 01:16:31;;;;;;;20.83;11.10;;;28.10;79.60;;;;;;4986326;28;20045;-53
2023/03/07 01:19:01;;;;;;;21.35;11.02;;;28.10;79.60;;;;;;4986014;28;20366;-53
2023/03/07 01:21:30;;;;;;;17.15;10.40;;;28.00;79.60;;;;;;4983849;28;20156;-53
2023/03/07 01:24:05;;;;;;;18.13;10.70;;;27.90;79.10;;;;;;4980123;28;20027;-53
2023/03/07 01:26:36;;;;;;;17.17;10.13;;;27.60;79.60;;;;;;4980913;28;20026;-52
2023/03/07 01:29:04;;;;;;;21.25;10.48;;;27.40;79.90;;;;;;4967015;28;20038;-52
2023/03/07 01:31:37;;;;;;;20.33;11.15;;;27.30;80.80;;;;;;4978752;28;20101;-51
2023/03/07 01:36:59;;;;;;;18.77;10.05;;;27.30;80.40;;;;;;4980353;28;19911;-53
2023/03/07 01:39:26;;;;;;;21.65;10.18;;;27.10;80.60;;;;;;4966177;28;20055;-51
2023/03/07 01:41:52;;;;;;;17.75;9.65;;;27.10;81.10;;;;;;4972192;28;20106;-52
2023/03/07 01:44:25;;;;;;;24.52;10.30;;;27.10;81.00;;;;;;4977745;28;20014;-55
2023/03/07 01:47:13;;;;;;;23.67;11.07;;;27.10;81.30;;;;;;4966346;28;20027;-51
2023/03/07 01:49:45;;;;;;;21.50;11.05;;;27.10;81.10;;;;;;4966013;28;20046;-53
2023/03/07 01:52:35;;;;;;;18.50;10.13;;;27.00;80.70;;;;;;4972400;28;20051;-50
2023/03/07 01:55:11;;;;;;;23.33;10.73;;;27.00;81.40;;;;;;4985494;28;20030;-48
2023/03/07 01:57:41;;;;;;;24.80;10.50;;;27.00;81.30;;;;;;4985228;28;20170;-47
2023/03/07 02:03:13;;;;;;;23.55;10.90;;;27.20;81.10;;;;;;4984201;28;20066;-51
2023/03/07 02:05:55;;;;;;;19.60;10.30;;;27.40;80.80;;;;;;4973313;28;20034;-46
2023/03/07 02:08:26;;;;;;;20.15;9.85;;;27.40;80.30;;;;;;4984369;28;20030;-48
2023/03/07 02:10:53;;;;;;;20.13;10.13;;;27.50;80.20;;;;;;4985592;28;20027;-48
2023/03/07 02:13:20;;;;;;;18.60;9.80;;;27.60;80.00;;;;;;4985262;28;20027;-47
2023/03/07 02:16:41;;;;;;;22.00;10.38;;;27.60;79.70;;;;;;4985711;28;20041;-52
2023/03/07 02:19:34;;;;;;;22.60;10.13;;;27.70;79.50;;;;;;4959039;28;20043;-49
2023/03/07 02:22:10;;;;;;;19.67;10.00;;;27.70;79.40;;;;;;4983679;28;20039;-53
2023/03/07 02:25:17;;;;;;;17.60;9.85;;;27.80;79.30;;;;;;4984948;28;20027;-54
2023/03/07 02:27:46;;;;;;;22.70;10.65;;;27.80;79.40;;;;;;5002488;28;20356;-53
2023/03/07 02:30:13;;;;;;;16.58;10.30;;;27.80;79.40;;;;;;4975322;28;20054;-47
2023/03/07 02:32:39;;;;;;;20.13;10.35;;;27.80;79.30;;;;;;4981984;28;20030;-50
2023/03/07 02:35:24;;;;;;;17.35;9.95;;;27.80;79.30;;;;;;4965721;28;20027;-52
2023/03/07 02:37:56;;;;;;;17.75;9.82;;;27.80;79.30;;;;;;4980464;28;20063;-50
2023/03/07 02:40:26;;;;;;;20.48;9.88;;;27.80;79.30;;;;;;4975941;28;20086;-50
2023/03/07 02:43:08;;;;;;;18.90;9.93;;;27.80;79.10;;;;;;4985430;28;20062;-49
2023/03/07 02:45:34;;;;;;;17.90;9.68;;;27.80;79.10;;;;;;4985114;28;20333;-47
2023/03/07 02:48:01;;;;;;;17.70;9.50;;;27.80;79.00;;;;;;4983203;28;20378;-47
2023/03/07 02:50:28;;;;;;;22.65;9.70;;;27.80;78.70;;;;;;4982784;28;20018;-47
2023/03/07 02:52:55;;;;;;;18.27;9.30;;;27.80;78.70;;;;;;4983294;28;20069;-50
2023/03/07 02:55:32;;;;;;;19.10;9.20;;;27.80;78.80;;;;;;4984589;28;20023;-51
2023/03/07 02:57:59;;;;;;;14.38;9.05;;;27.80;78.70;;;;;;4984709;28;20023;-46
2023/03/07 03:00:25;;;;;;;15.13;9.50;;;27.80;78.70;;;;;;4983043;28;20038;-51
2023/03/07 03:02:52;;;;;;;16.60;9.23;;;27.80;78.70;;;;;;4981932;28;20369;-46
2023/03/07 03:05:19;;;;;;;16.35;8.65;;;27.70;78.60;;;;;;4983094;28;20033;-52
2023/03/07 03:08:11;;;;;;;16.58;9.23;;;27.70;78.40;;;;;;4983636;28;20339;-55
2023/03/07 03:10:52;;;;;;;17.27;8.60;;;27.70;78.50;;;;;;4983258;28;20365;-46
2023/03/07 03:13:19;;;;;;;15.85;8.65;;;27.70;78.50;;;;;;4983623;28;20246;-48
2023/03/07 03:15:50;;;;;;;16.45;9.25;;;27.70;78.40;;;;;;4979857;28;20133;-58
2023/03/07 03:18:17;;;;;;;15.65;9.13;;;27.70;78.40;;;;;;4978388;28;20073;-50
2023/03/07 03:20:43;;;;;;;19.75;9.00;;;27.70;78.60;;;;;;4984191;28;20102;-45
2023/03/07 03:23:10;;;;;;;19.92;8.32;;;27.70;78.60;;;;;;4984258;28;20030;-48
2023/03/07 03:25:36;;;;;;;18.15;9.25;;;27.70;78.50;;;;;;4984551;28;20105;-49
2023/03/07 03:28:03;;;;;;;16.80;8.98;;;27.70;78.60;;;;;;4985944;28;20030;-52
2023/03/07 03:30:31;;;;;;;16.27;9.50;;;27.70;78.70;;;;;;4987722;28;20278;-49
2023/03/07 03:32:58;;;;;;;17.17;9.25;;;27.70;78.60;;;;;;4988122;28;20034;-56
2023/03/07 03:35:24;;;;;;;16.60;9.35;;;27.70;78.60;;;;;;4987628;28;20034;-46
2023/03/07 03:37:52;;;;;;;16.52;9.40;;;27.70;78.60;;;;;;4987827;28;20037;-53
2023/03/07 03:40:19;;;;;;;12.13;8.95;;;27.70;78.70;;;;;;4987300;28;20051;-50
2023/03/07 03:42:46;;;;;;;17.80;8.77;;;27.70;78.60;;;;;;4987936;28;20018;-47
2023/03/07 03:45:16;;;;;;;15.45;9.00;;;27.70;78.50;;;;;;4987703;28;20058;-47
2023/03/07 03:47:43;;;;;;;23.80;10.13;;;27.70;78.50;;;;;;4987813;28;20026;-52
2023/03/07 03:50:10;;;;;;;15.95;10.20;;;27.70;78.60;;;;;;4979717;28;20042;-49
2023/03/07 03:52:37;;;;;;;17.58;10.57;;;27.60;78.80;;;;;;4983276;28;20085;-48
2023/03/07 03:55:07;;;;;;;22.13;10.32;;;27.60;79.00;;;;;;4983578;28;20184;-47
2023/03/07 03:57:34;;;;;;;18.13;9.68;;;27.60;78.90;;;;;;4976436;28;20031;-47
2023/03/07 04:00:03;;;;;;;20.70;9.88;;;27.60;78.90;;;;;;4968074;28;20219;-53
2023/03/07 04:02:32;;;;;;;19.65;11.45;;;27.60;79.00;;;;;;4968342;28;20304;-54
2023/03/07 04:04:58;;;;;;;21.60;12.85;;;27.60;78.90;;;;;;4967868;28;20042;-47
2023/03/07 04:07:27;;;;;;;25.92;13.75;;;27.60;79.00;;;;;;4967617;28;20023;-49
2023/03/07 04:09:54;;;;;;;20.23;12.85;;;27.60;79.00;;;;;;4967797;28;20031;-48
2023/03/07 04:12:21;;;;;;;20.20;12.75;;;27.60;78.90;;;;;;4968038;28;20035;-48
2023/03/07 04:14:47;;;;;;;19.85;11.27;;;27.60;78.90;;;;;;4967638;28;20031;-47
2023/03/07 04:17:14;;;;;;;17.23;10.90;;;27.60;79.00;;;;;;4968056;28;20034;-51
2023/03/07 04:19:40;;;;;;;15.20;10.48;;;27.50;78.80;;;;;;4967647;28;20030;-49
2023/03/07 04:22:07;;;;;;;18.77;10.57;;;27.50;79.00;;;;;;4967544;28;20097;-49
2023/03/07 04:24:34;;;;;;;18.85;10.13;;;27.50;79.10;;;;;;4967629;28;20263;-54
2023/03/07 04:27:00;;;;;;;17.80;9.57;;;27.50;79.00;;;;;;4967964;28;20035;-49
2023/03/07 04:29:27;;;;;;;16.08;9.93;;;27.50;79.10;;;;;;4967668;28;20082;-50
2023/03/07 04:31:53;;;;;;;18.40;9.98;;;27.50;79.00;;;;;;4967614;28;20022;-49
2023/03/07 04:34:23;;;;;;;17.80;10.65;;;27.50;79.10;;;;;;4967341;28;20054;-51
2023/03/07 04:36:53;;;;;;;15.00;11.13;;;27.50;79.00;;;;;;4967216;28;20050;-49
2023/03/07 04:39:19;;;;;;;16.88;11.93;;;27.50;79.00;;;;;;4966254;28;20171;-48
2023/03/07 04:41:46;;;;;;;17.25;11.20;;;27.40;79.00;;;;;;4967207;28;20098;-54
2023/03/07 04:44:14;;;;;;;16.67;11.35;;;27.50;79.10;;;;;;4967094;28;20024;-49
2023/03/07 04:46:41;;;;;;;20.45;11.13;;;27.50;79.00;;;;;;4967201;28;20028;-47
2023/03/07 04:49:07;;;;;;;17.55;9.98;;;27.50;79.00;;;;;;4966981;28;20035;-48
2023/03/07 04:51:34;;;;;;;15.50;9.35;;;27.50;78.80;;;;;;4966789;28;20063;-48
2023/03/07 04:54:01;;;;;;;15.10;9.70;;;27.50;78.80;;;;;;4966993;28;20322;-51
2023/03/07 04:56:27;;;;;;;16.38;9.43;;;27.40;78.80;;;;;;4966926;28;20070;-52
2023/03/07 04:58:54;;;;;;;12.73;9.15;;;27.50;78.90;;;;;;4966799;28;20027;-52
2023/03/07 05:01:20;;;;;;;15.60;8.88;;;27.40;78.90;;;;;;4966922;28;20023;-50
2023/03/07 05:03:47;;;;;;;15.05;8.80;;;27.50;79.20;;;;;;4966796;28;20042;-50
2023/03/07 05:06:15;;;;;;;14.07;8.75;;;27.40;79.10;;;;;;4966554;28;20243;-52
2023/03/07 05:08:42;;;;;;;15.30;8.27;;;27.40;79.10;;;;;;4966703;28;20204;-51
2023/03/07 05:11:08;;;;;;;14.32;8.82;;;27.40;79.20;;;;;;4966902;28;20038;-53
2023/03/07 05:13:35;;;;;;;16.33;8.82;;;27.50;79.20;;;;;;4966945;28;20113;-48
2023/03/07 05:16:02;;;;;;;14.38;8.57;;;27.50;79.20;;;;;;4966553;28;20043;-55
2023/03/07 05:18:28;;;;;;;14.88;8.68;;;27.40;79.20;;;;;;4967000;29;20131;-47
2023/03/07 05:20:55;;;;;;;15.88;8.85;;;27.40;79.30;;;;;;4966293;28;20027;-57
2023/03/07 05:23:22;;;;;;;12.57;8.05;;;27.40;79.50;;;;;;4966900;28;20035;-55
2023/03/07 05:25:49;;;;;;;12.13;8.80;;;27.40;79.50;;;;;;4966376;28;20268;-50
2023/03/07 05:28:16;;;;;;;15.43;8.40;;;27.40;79.50;;;;;;4966751;28;20078;-48
2023/03/07 05:30:46;;;;;;;15.95;8.25;;;27.40;79.50;;;;;;4966475;28;20047;-47
2023/03/07 05:33:13;;;;;;;15.57;8.30;;;27.30;79.50;;;;;;4966655;28;20023;-57
2023/03/07 05:35:40;;;;;;;16.27;8.13;;;27.40;79.60;;;;;;4966321;28;20047;-48
2023/03/07 05:38:07;;;;;;;16.30;9.13;;;27.40;79.60;;;;;;4966542;28;20212;-46
2023/03/07 05:40:34;;;;;;;14.85;8.05;;;27.30;79.50;;;;;;4965896;28;20332;-51
2023/03/07 05:43:01;;;;;;;17.13;8.40;;;27.30;79.50;;;;;;4966312;28;20082;-46
2023/03/07 05:45:27;;;;;;;13.90;8.73;;;27.30;79.50;;;;;;4966155;28;20019;-55
2023/03/07 05:47:54;;;;;;;13.43;8.63;;;27.30;79.60;;;;;;4966533;28;20046;-48
2023/03/07 05:50:21;;;;;;;12.77;8.82;;;27.30;79.60;;;;;;4965957;28;20051;-51
2023/03/07 05:52:48;;;;;;;14.02;8.32;;;27.30;79.60;;;;;;4965828;28;20082;-50
2023/03/07 05:55:14;;;;;;;13.90;7.95;;;27.30;79.50;;;;;;4965947;28;20035;-47
2023/03/07 05:57:41;;;;;;;16.30;8.48;;;27.30;79.50;;;;;;4967208;28;20015;-46
2023/03/07 06:00:08;;;;;;;14.45;8.43;;;27.30;79.30;;;;;;4967080;28;20046;-47
2023/03/07 06:02:35;;;;;;;17.65;8.98;;;27.30;79.30;;;;;;4965961;28;20303;-52
2023/03/07 06:05:01;;;;;;;12.80;8.18;;;27.30;79.20;;;;;;4965830;28;20073;-53
2023/03/07 06:07:28;;;;;;;11.10;8.02;;;27.30;79.10;;;;;;4965900;28;20034;-51
2023/03/07 06:09:54;;;;;;;13.52;8.32;;;27.30;79.00;;;;;;4965710;28;20343;-51
2023/03/07 06:12:21;;;;;;;15.07;8.57;;;27.30;79.00;;;;;;4965969;28;20027;-52
2023/03/07 06:14:48;;;;;;;14.80;8.02;;;27.30;78.90;;;;;;4965604;28;20319;-51
2023/03/07 06:17:14;;;;;;;15.27;7.78;;;27.30;78.90;;;;;;4964567;29;20111;-54
2023/03/07 06:19:41;;;;;;;15.48;8.10;;;27.30;78.90;;;;;;4965666;28;20035;-47
2023/03/07 06:22:07;;;;;;;11.63;8.20;;;27.30;78.90;;;;;;4965660;28;20047;-47
2023/03/07 06:24:34;;;;;;;16.88;7.82;;;27.30;78.90;;;;;;4965633;28;20031;-52
2023/03/07 06:27:01;;;;;;;15.10;8.07;;;27.30;78.90;;;;;;4965769;28;20023;-48
2023/03/07 06:29:27;;;;;;;14.48;8.60;;;27.30;78.80;;;;;;4965507;28;20043;-48
2023/03/07 06:31:54;;;;;;;16.33;7.90;;;27.30;78.70;;;;;;4965802;28;20035;-51
2023/03/07 06:34:20;;;;;;;12.43;7.70;;;27.30;78.60;;;;;;4965541;28;20031;-52
2023/03/07 06:36:50;;;;;;;12.95;8.27;;;27.30;78.60;;;;;;4965349;28;20377;-50
2023/03/07 06:39:19;;;;;;;10.27;7.45;;;27.30;78.60;;;;;;4965270;28;20079;-50
2023/03/07 06:41:51;;;;;;;15.60;8.70;;;27.30;78.70;;;;;;4965610;28;20042;-48
2023/03/07 06:44:18;;;;;;;14.75;8.38;;;27.30;78.70;;;;;;4965329;28;20027;-48
2023/03/07 06:46:45;;;;;;;14.73;8.25;;;27.30;78.80;;;;;;4965667;28;20060;-50
2023/03/07 06:49:12;;;;;;;14.68;8.23;;;27.30;78.80;;;;;;4965448;28;20058;-46
2023/03/07 06:51:39;;;;;;;15.18;8.50;;;27.30;79.00;;;;;;4965290;28;20019;-47
2023/03/07 06:54:05;;;;;;;13.93;8.35;;;27.30;79.10;;;;;;4965513;28;20120;-52
2023/03/07 06:56:33;;;;;;;15.00;8.43;;;27.30;79.20;;;;;;4965384;28;20212;-51
2023/03/07 06:59:00;;;;;;;13.48;8.90;;;27.30;79.30;;;;;;4965174;28;20106;-46
2023/03/07 07:01:26;;;;;;;13.93;8.45;;;27.30;79.40;;;;;;4965204;28;20027;-46
2023/03/07 07:03:53;;;;;;;13.32;8.85;;;27.30;79.40;;;;;;4967878;28;20031;-46
2023/03/07 07:06:20;;;;;;;16.08;8.77;;;27.30;79.50;;;;;;4968801;28;20342;-51
2023/03/07 07:08:46;;;;;;;13.70;8.90;;;27.30;79.60;;;;;;4969130;28;20038;-54
2023/03/07 07:11:13;;;;;;;13.63;8.70;;;27.30;79.60;;;;;;4988257;28;20050;-46
2023/03/07 07:13:39;;;;;;;18.50;9.27;;;27.30;79.60;;;;;;4988009;28;20409;-50
2023/03/07 07:16:08;;;;;;;12.68;8.40;;;27.30;79.60;;;;;;4988251;28;20184;-49
2023/03/07 07:18:34;;;;;;;15.32;9.20;;;27.20;79.70;;;;;;4988560;28;20038;-48
2023/03/07 07:21:01;;;;;;;15.18;9.15;;;27.20;79.70;;;;;;4987786;28;20266;-52
2023/03/07 07:23:28;;;;;;;14.82;8.85;;;27.20;79.60;;;;;;4987868;28;20378;-46
2023/03/07 07:25:54;;;;;;;15.02;8.65;;;27.20;79.60;;;;;;4987970;28;20027;-46
2023/03/07 07:28:21;;;;;;;14.65;8.65;;;27.20;79.70;;;;;;4988263;28;20042;-47
2023/03/07 07:30:48;;;;;;;14.57;8.43;;;27.20;79.80;;;;;;4987883;28;20378;-49
2023/03/07 07:33:14;;;;;;;18.08;9.38;;;27.30;79.90;;;;;;4988322;28;20035;-45
2023/03/07 07:35:44;;;;;;;16.60;9.18;;;27.30;79.70;;;;;;4987695;28;20143;-46
2023/03/07 07:38:11;;;;;;;17.10;9.27;;;27.20;79.50;;;;;;4988140;28;20073;-47
2023/03/07 07:40:39;;;;;;;14.10;8.23;;;27.20;79.40;;;;;;4986827;28;20061;-47
2023/03/07 07:43:05;;;;;;;12.20;8.40;;;27.30;79.50;;;;;;4976958;28;20027;-46
2023/03/07 07:45:32;;;;;;;18.60;8.98;;;27.30;79.60;;;;;;4987594;28;20302;-48
2023/03/07 07:47:59;;;;;;;14.02;8.38;;;27.20;79.60;;;;;;4988077;28;20037;-47
2023/03/07 07:50:25;;;;;;;14.65;8.45;;;27.20;79.70;;;;;;4987448;28;20035;-47
2023/03/07 07:52:53;;;;;;;13.75;8.77;;;27.20;79.80;;;;;;4987881;28;20287;-48
2023/03/07 07:55:19;;;;;;;14.82;8.40;;;27.20;80.00;;;;;;4987389;28;20086;-50
2023/03/07 07:57:46;;;;;;;13.60;8.88;;;27.20;80.10;;;;;;4987615;28;20033;-49
2023/03/07 08:00:18;;;;;;;13.95;8.35;;;27.30;80.10;;;;;;4987369;28;20102;-46
2023/03/07 08:02:44;;;;;;;15.93;8.70;;;27.20;80.10;;;;;;4987683;28;20303;-48
2023/03/07 08:05:11;;;;;;;16.92;8.30;;;27.20;80.00;;;;;;4987151;28;20032;-45
2023/03/07 08:07:38;;;;;;;16.52;9.27;;;27.30;79.90;;;;;;4987065;28;20023;-51
2023/03/07 08:10:05;;;;;;;15.48;8.45;;;27.30;79.80;;;;;;4987367;28;20257;-48
2023/03/07 08:12:31;;;;;;;14.02;8.50;;;27.30;79.70;;;;;;4987278;28;20318;-45
2023/03/07 08:14:58;;;;;;;15.98;8.80;;;27.30;79.70;;;;;;4986191;28;20039;-50
2023/03/07 08:17:24;;;;;;;17.10;8.73;;;27.20;79.70;;;;;;4987272;28;20027;-51
2023/03/07 08:19:51;;;;;;;15.73;8.43;;;27.30;79.80;;;;;;4986965;28;20097;-47
2023/03/07 08:22:18;;;;;;;15.65;8.45;;;27.30;79.90;;;;;;4987119;28;20023;-46
2023/03/07 08:24:46;;;;;;;16.10;9.07;;;27.30;79.80;;;;;;4986880;28;20030;-47
2023/03/07 08:27:13;;;;;;;16.10;7.90;;;27.20;79.80;;;;;;4986906;28;20413;-50
2023/03/07 08:29:39;;;;;;;12.95;8.25;;;27.20;79.80;;;;;;4986824;28;20134;-48
2023/03/07 08:32:06;;;;;;;12.43;7.85;;;27.20;79.70;;;;;;4986944;28;20027;-51
2023/03/07 08:34:33;;;;;;;15.30;9.40;;;27.20;79.70;;;;;;4986597;28;20046;-47
2023/03/07 08:36:59;;;;;;;14.95;8.85;;;27.20;79.80;;;;;;4986790;28;20113;-46
2023/03/07 08:39:26;;;;;;;15.20;8.95;;;27.20;79.80;;;;;;4995861;28;20053;-51
2023/03/07 08:41:54;;;;;;;15.13;8.32;;;27.20;79.70;;;;;;5025693;28;20031;-48
2023/03/07 08:44:20;;;;;;;13.95;8.38;;;27.20;79.80;;;;;;5026109;28;20049;-47
2023/03/07 08:46:47;;;;;;;14.00;8.55;;;27.20;79.90;;;;;;5025453;28;20025;-51
2023/03/07 08:49:13;;;;;;;15.48;8.98;;;27.20;80.00;;;;;;5025598;28;20088;-52
2023/03/07 08:51:40;;;;;;;18.10;8.50;;;27.20;79.90;;;;;;5025417;28;20046;-48
2023/03/07 08:54:06;;;;;;;15.73;8.30;;;27.20;79.90;;;;;;5025555;28;20025;-48
2023/03/07 08:56:33;;;;;;;14.80;8.70;;;27.20;79.90;;;;;;5025378;28;20026;-54
2023/03/07 08:58:59;;;;;;;11.35;8.00;;;27.20;79.90;;;;;;5025218;28;20321;-51
2023/03/07 09:01:26;;;;;;;16.05;8.20;;;27.20;80.00;;;;;;5025339;28;20203;-47
2023/03/07 09:03:52;;;;;;;17.67;9.20;;;27.20;79.90;;;;;;5025382;28;20026;-51
2023/03/07 09:06:20;;;;;;;14.43;8.82;;;27.20;80.00;;;;;;5025013;28;20329;-49
2023/03/07 09:08:48;;;;;;;16.02;8.70;;;27.20;80.00;;;;;;5025165;28;20269;-46
2023/03/07 09:11:16;;;;;;;13.50;8.20;;;27.20;80.10;;;;;;5025305;28;20029;-50
2023/03/07 09:13:43;;;;;;;15.52;8.80;;;27.20;80.20;;;;;;5024998;28;20053;-46
2023/03/07 09:16:10;;;;;;;14.07;8.65;;;27.20;80.20;;;;;;5025223;28;20057;-48
2023/03/07 09:18:36;;;;;;;14.30;8.98;;;27.20;80.10;;;;;;5025232;28;20022;-49
2023/03/07 09:21:04;;;;;;;15.50;8.63;;;27.20;80.10;;;;;;5023775;28;20033;-51
2023/03/07 09:23:31;;;;;;;18.08;7.97;;;27.20;80.10;;;;;;5025202;28;20306;-48
2023/03/07 09:26:03;;;;;;;17.48;8.57;;;27.20;80.10;;;;;;5024546;28;20056;-53
2023/03/07 09:28:29;;;;;;;14.73;9.00;;;27.20;80.20;;;;;;5025108;28;20089;-54
2023/03/07 09:30:56;;;;;;;17.15;9.15;;;27.20;80.30;;;;;;5024790;28;20092;-48
2023/03/07 09:33:23;;;;;;;17.20;8.40;;;27.20;80.40;;;;;;5025196;28;20306;-46
2023/03/07 09:35:49;;;;;;;14.35;8.85;;;27.20;80.60;;;;;;5024602;28;20045;-50
2023/03/07 09:38:16;;;;;;;16.27;9.27;;;27.10;80.70;;;;;;5024913;28;20140;-49
2023/03/07 09:40:46;;;;;;;15.30;8.75;;;27.10;80.80;;;;;;5024668;28;20076;-51
2023/03/07 09:43:20;;;;;;;14.55;8.38;;;27.10;80.80;;;;;;5024795;28;20061;-50
2023/03/07 09:46:20;;;;;;;16.05;8.40;;;27.10;80.80;;;;;;5024463;28;20283;-46
2023/03/07 09:49:07;;;;;;;15.20;8.07;;;27.10;80.90;;;;;;5024442;28;20026;-47
2023/03/07 09:51:41;;;;;;;13.63;8.18;;;27.10;81.00;;;;;;5024376;28;20037;-51
2023/03/07 09:54:21;;;;;;;14.20;8.88;;;27.10;81.20;;;;;;5024407;28;20022;-48
2023/03/07 09:56:59;;;;;;;14.77;8.65;;;27.10;81.10;;;;;;5024195;28;20110;-47
2023/03/07 09:59:37;;;;;;;13.57;8.52;;;27.00;81.00;;;;;;5024330;28;20021;-48
2023/03/07 10:02:30;;;;;;;15.18;8.75;;;27.00;81.10;;;;;;5024194;28;20263;-52
2023/03/07 10:05:27;;;;;;;16.10;9.27;;;27.00;81.10;;;;;;5024310;28;20018;-51
2023/03/07 10:07:54;;;;;;;17.02;9.25;;;27.00;81.20;;;;;;5024212;28;20049;-46
2023/03/07 10:10:22;;;;;;;16.27;9.07;;;27.00;81.40;;;;;;5023567;28;20037;-49
2023/03/07 10:13:17;;;;;;;14.95;8.82;;;27.00;81.40;;;;;;5024372;28;20072;-46
2023/03/07 10:15:46;;;;;;;14.23;7.97;;;27.00;81.40;;;;;;5024044;28;20064;-52
2023/03/07 10:18:16;;;;;;;18.13;9.32;;;27.00;81.90;;;;;;5024635;28;20313;-50
2023/03/07 10:20:56;;;;;;;13.30;8.73;;;27.00;81.50;;;;;;5023961;28;20026;-48
2023/03/07 10:24:10;;;;;;;18.98;9.05;;;27.00;81.40;;;;;;5024375;28;20025;-51
2023/03/07 10:27:04;;;;;;;15.50;8.77;;;27.00;81.30;;;;;;5022873;28;20017;-48
2023/03/07 10:29:47;;;;;;;15.85;8.55;;;27.10;81.40;;;;;;5024164;28;20100;-47
2023/03/07 10:32:46;;;;;;;16.13;9.05;;;27.00;81.20;;;;;;5024159;28;20314;-55
2023/03/07 10:35:15;;;;;;;13.70;9.02;;;27.00;81.30;;;;;;5018373;28;20049;-47
2023/03/07 10:38:04;;;;;;;12.73;8.20;;;27.00;81.30;;;;;;5020874;28;20021;-50
2023/03/07 10:40:49;;;;;;;11.60;8.48;;;27.00;81.40;;;;;;5019314;28;20116;-51
2023/03/07 10:43:33;;;;;;;17.10;9.02;;;27.00;81.40;;;;;;5026291;28;20045;-49
2023/03/07 10:46:11;;;;;;;14.98;8.77;;;27.00;81.40;;;;;;5019540;28;20101;-48
2023/03/07 10:48:52;;;;;;;17.27;9.13;;;26.90;81.40;;;;;;5028196;28;20210;-48
2023/03/07 10:51:34;;;;;;;17.93;9.70;;;27.00;81.60;;;;;;5028038;28;20069;-50
2023/03/07 10:54:03;;;;;;;17.30;10.00;;;27.00;81.70;;;;;;5028238;28;20049;-50
2023/03/07 10:56:30;;;;;;;16.50;9.82;;;26.90;81.70;;;;;;5028047;28;20061;-51
2023/03/07 10:59:08;;;;;;;20.33;10.35;;;26.90;81.70;;;;;;5027696;28;20205;-50
2023/03/07 11:01:36;;;;;;;20.63;11.10;;;26.90;81.70;;;;;;5026696;28;20045;-47
2023/03/07 11:04:19;;;;;;;20.38;10.55;;;27.00;81.90;;;;;;5026430;28;20014;-49
2023/03/07 11:07:01;;;;;;;16.33;9.90;;;27.00;81.90;;;;;;5027736;28;20381;-48
2023/03/07 11:09:33;;;;;;;20.35;10.88;;;26.90;82.00;;;;;;5026622;28;20242;-56
2023/03/07 11:12:12;;;;;;;18.20;10.48;;;26.90;82.30;;;;;;5027400;28;20321;-48
2023/03/07 11:14:48;;;;;;;18.27;10.30;;;26.90;82.40;;;;;;5022759;28;20026;-49
2023/03/07 11:17:32;;;;;;;19.75;10.27;;;26.90;82.50;;;;;;5029794;28;20277;-51
2023/03/07 11:19:58;;;;;;;21.75;10.85;;;26.90;82.40;;;;;;5035810;28;20049;-46
2023/03/07 11:22:33;;;;;;;24.58;11.00;;;26.90;82.60;;;;;;5035152;28;20033;-45
2023/03/07 11:25:15;;;;;;;18.33;10.63;;;26.90;82.90;;;;;;5035310;28;20037;-45
2023/03/07 11:27:56;;;;;;;17.75;11.10;;;27.00;83.10;;;;;;5035054;28;20029;-48
2023/03/07 11:30:41;;;;;;;31.20;14.40;;;27.00;83.30;;;;;;5031978;28;20137;-52
2023/03/07 11:33:35;;;;;;;55.53;22.33;;;27.00;83.70;;;;;;5033460;28;20029;-46
2023/03/07 11:36:16;;;;;;;33.13;17.05;;;27.00;84.40;;;;;;5028733;28;20032;-50
2023/03/07 11:39:17;;;;;;;32.88;15.57;;;27.00;84.20;;;;;;5026366;28;20029;-50
2023/03/07 11:41:54;;;;;;;33.25;15.52;;;26.90;84.30;;;;;;5026678;28;20029;-57
2023/03/07 11:44:20;;;;;;;36.00;15.23;;;26.90;84.60;;;;;;5026625;28;20037;-54
2023/03/07 11:47:16;;;;;;;37.35;14.73;;;26.90;84.80;;;;;;5025969;28;20017;-53
2023/03/07 11:49:51;;;;;;;38.22;15.02;;;26.90;84.70;;;;;;5005704;28;20109;-54
2023/03/07 11:52:26;;;;;;;42.47;15.15;;;26.90;84.70;;;;;;5027000;28;20056;-54
2023/03/07 11:54:59;;;;;;;36.92;14.55;;;26.90;85.10;;;;;;5026764;28;20274;-53
2023/03/07 11:57:45;;;;;;;48.25;15.93;;;26.90;85.10;;;;;;5026899;28;20018;-53
2023/03/07 12:00:23;;;;;;;57.55;19.05;;;26.90;85.10;;;;;;5026282;28;20049;-52
2023/03/07 12:02:50;;;;;;;52.25;17.60;;;26.90;85.40;;;;;;5025619;28;20040;-53
2023/03/07 12:05:32;;;;;;;47.63;16.25;;;26.90;85.60;;;;;;5026308;28;20029;-53
2023/03/07 12:08:13;;;;;;;52.55;17.00;;;26.90;85.60;;;;;;5026689;28;20273;-52
2023/03/07 12:11:25;;;;;;;54.23;17.13;;;27.00;85.60;;;;;;5026548;28;20046;-53
2023/03/07 12:14:10;;;;;;;54.33;16.23;;;26.90;86.10;;;;;;5026108;28;20288;-53
2023/03/07 12:17:00;;;;;;;40.65;14.95;;;27.00;85.50;;;;;;5026299;28;20033;-54
2023/03/07 12:20:06;;;;;;;48.50;14.48;;;27.00;85.30;;;;;;5007515;28;20030;-53
2023/03/07 12:22:50;;;;;;;36.83;13.90;;;27.00;85.40;;;;;;5026400;28;20329;-53
2023/03/07 12:25:35;;;;;;;37.83;14.43;;;26.90;85.40;;;;;;5025810;28;20014;-53
2023/03/07 12:28:09;;;;;;;38.63;14.25;;;27.00;85.60;;;;;;5026080;28;20045;-53
2023/03/07 12:30:51;;;;;;;41.53;15.32;;;27.00;85.70;;;;;;5026001;28;20025;-54
2023/03/07 12:33:47;;;;;;;35.17;15.90;;;27.00;85.60;;;;;;5026008;28;20034;-58
2023/03/07 12:36:33;;;;;;;32.72;15.65;;;27.10;85.70;;;;;;5025765;28;20013;-54
2023/03/07 12:39:21;;;;;;;43.47;17.13;;;27.10;85.60;;;;;;5025268;28;20049;-56
2023/03/07 12:41:59;;;;;;;37.50;14.32;;;27.20;85.50;;;;;;5025952;28;20064;-55
2023/03/07 12:44:25;;;;;;;40.42;15.40;;;27.20;85.40;;;;;;5025835;28;20041;-53
2023/03/07 12:47:10;;;;;;;43.28;15.50;;;27.20;85.20;;;;;;5025914;28;20014;-55
2023/03/07 12:50:06;;;;;;;33.95;13.85;;;27.20;85.20;;;;;;5025536;28;20056;-55
2023/03/07 12:52:35;;;;;;;32.13;13.13;;;27.20;84.80;;;;;;5008241;28;20283;-53
2023/03/07 12:55:16;;;;;;;31.25;13.50;;;27.30;84.70;;;;;;5025394;28;20053;-56
2023/03/07 12:58:06;;;;;;;28.83;12.90;;;27.30;84.70;;;;;;5025362;28;20021;-54
2023/03/07 13:00:39;;;;;;;26.27;13.15;;;27.30;84.80;;;;;;5024426;28;20044;-53
2023/03/07 13:03:06;;;;;;;27.63;13.32;;;27.30;84.80;;;;;;5025099;28;20048;-51